Cannon Beach, Oregon
Current Conditions -  °F | °C
As of 10:55 PM on Wednesday 22 Oct 2014 (Local Time) from KAST Reporting Station
Scattered Clouds Scattered Clouds  
Wind Chill: 54°   Ceiling: Unl
Heat Index: 54°   Visibility: 10mi
Dew Point: 51°   Wind: 9mph
Humidity: 90%   Direction: 180°S
Pressure: 29.71"   Gusts: NA
Location:  45.89°N, 123.96°W
Report Text: KAST 230555Z AUTO 18008KT 10SM SCT027 12/11 A2971 RMK AO2 RAE0458 SLP059 P0000 60027 T01220106 10144 20122 53021
Loading
Personal Weather Stations






























Interactive Weather Map
Tropical Storm Tracking
New forecast layout! Learn more

10-Day Weather Forecast

Advertisements
Track Severe Weather on mobile